Time;durP1;ratioP1;P1;durP2;ratioP2;P2;SDS_P1;SDS_P2;PMS_P1;PMS_P2;Temp;Humidity;BMP_temperature;BMP_pressure;BME280_temperature;BME280_humidity;BME280_pressure;Samples;Min_cycle;Max_cycle;Signal;HPM_P1;HPM_P2
2022/10/14 00:00:32;;;;;;;31.75;21.75;;;;;;;11.78;100.00;101238.84;10543788;28;20531;-64
2022/10/14 00:05:32;;;;;;;30.08;20.73;;;;;;;11.77;100.00;101244.97;10543732;28;20447;-65
2022/10/14 00:10:37;;;;;;;32.50;22.43;;;;;;;11.79;100.00;101250.13;10543460;28;20024;-64
2022/10/14 00:15:41;;;;;;;32.65;22.13;;;;;;;11.79;100.00;101250.13;10540895;28;20033;-64
2022/10/14 00:20:41;;;;;;;31.00;22.85;;;;;;;11.77;100.00;101244.97;10542973;28;20035;-67
2022/10/14 00:25:42;;;;;;;35.30;22.93;;;;;;;11.76;100.00;101250.25;10542944;28;20064;-63
2022/10/14 00:31:00;;;;;;;32.47;21.50;;;;;;;11.75;100.00;101244.19;10542745;28;20517;-63
2022/10/14 00:36:05;;;;;;;32.85;21.20;;;;;;;11.72;100.00;101252.16;10523263;28;20293;-63
2022/10/14 00:41:11;;;;;;;27.83;19.98;;;;;;;11.73;100.00;101227.72;10542097;28;20111;-63
2022/10/14 00:46:12;;;;;;;33.22;21.48;;;;;;;11.75;100.00;101222.41;10539652;28;20065;-63
2022/10/14 00:51:12;;;;;;;28.93;21.33;;;;;;;11.72;100.00;101220.78;10541844;28;20058;-64
2022/10/14 00:56:21;;;;;;;29.23;19.77;;;;;;;11.72;100.00;101211.19;10541699;28;20564;-64
2022/10/14 01:01:22;;;;;;;30.27;21.98;;;;;;;11.71;100.00;101195.56;10541492;28;20032;-65
2022/10/14 01:06:50;;;;;;;38.97;22.73;;;;;;;11.71;100.00;101195.56;10541354;28;20056;-66
2022/10/14 01:12:07;;;;;;;30.73;20.80;;;;;;;11.65;100.00;101201.03;10541204;28;20034;-63
2022/10/14 01:17:49;;;;;;;28.55;20.33;;;;;;;11.59;100.00;101195.16;10538404;28;20321;-66
2022/10/14 01:23:11;;;;;;;34.85;21.67;;;;;;;11.55;100.00;101190.97;10539969;28;20489;-63
2022/10/14 01:28:27;;;;;;;35.75;22.15;;;;;;;11.60;100.00;101177.69;10540337;28;20032;-64
2022/10/14 01:33:37;;;;;;;33.33;21.13;;;;;;;11.57;100.00;101162.97;10540063;28;20395;-64
2022/10/14 01:38:46;;;;;;;33.85;22.88;;;;;;;11.56;100.00;101153.44;10539737;28;20101;-63
2022/10/14 01:43:50;;;;;;;41.45;23.73;;;;;;;11.60;100.00;101148.94;10537466;28;20039;-63
2022/10/14 01:48:59;;;;;;;35.50;21.63;;;;;;;11.57;100.00;101139.47;10539358;28;20081;-64
2022/10/14 01:54:09;;;;;;;38.90;22.20;;;;;;;11.58;100.00;101137.72;10539369;28;20511;-63
2022/10/14 01:59:14;;;;;;;33.33;20.15;;;;;;;11.56;100.00;101140.38;10539129;28;20024;-63
2022/10/14 02:04:21;;;;;;;38.45;22.00;;;;;;;11.62;100.00;101143.66;10538886;28;20383;-65
2022/10/14 02:10:25;;;;;;;39.03;21.10;;;;;;;11.59;100.00;101136.78;10538388;28;20042;-65
2022/10/14 02:15:56;;;;;;;39.45;22.08;;;;;;;11.63;100.00;101135.75;10535429;28;20148;-64
2022/10/14 02:21:09;;;;;;;34.03;21.23;;;;;;;11.62;100.00;101127.97;10538312;28;20076;-64
2022/10/14 02:26:10;;;;;;;37.65;21.40;;;;;;;11.66;100.00;101124.31;10538110;28;20035;-65
2022/10/14 02:31:16;;;;;;;38.50;20.77;;;;;;;11.69;100.00;101114.56;10538106;28;20023;-65
2022/10/14 02:36:21;;;;;;;33.78;20.77;;;;;;;11.73;100.00;101110.06;10537825;28;20028;-65
2022/10/14 02:41:33;;;;;;;41.30;18.83;;;;;;;11.75;100.00;101113.47;10531772;28;20058;-64
2022/10/14 02:46:34;;;;;;;35.40;19.13;;;;;;;11.74;100.00;101106.53;10528461;28;20097;-65
2022/10/14 02:51:36;;;;;;;40.00;19.80;;;;;;;11.75;100.00;101108.25;10537283;28;20028;-65
2022/10/14 02:56:37;;;;;;;33.90;18.10;;;;;;;11.77;100.00;101103.78;10537119;28;20023;-66
2022/10/14 03:01:38;;;;;;;33.58;19.00;;;;;;;11.79;100.00;101101.09;10536383;28;20039;-64
2022/10/14 03:06:38;;;;;;;36.92;18.67;;;;;;;11.78;100.00;101092.44;10536113;28;20024;-64
2022/10/14 03:11:39;;;;;;;33.80;19.50;;;;;;;11.78;100.00;101087.19;10534152;28;20016;-63
2022/10/14 03:16:39;;;;;;;33.60;18.30;;;;;;;11.79;100.00;101078.44;10532564;28;20077;-63
2022/10/14 03:21:39;;;;;;;32.05;18.05;;;;;;;11.77;100.00;101075.00;10517975;28;20038;-63
2022/10/14 03:26:40;;;;;;;26.07;17.43;;;;;;;11.77;100.00;101075.00;10536481;28;20035;-64
2022/10/14 03:31:40;;;;;;;33.50;18.40;;;;;;;11.82;100.00;101077.44;10518298;28;20028;-65
2022/10/14 03:36:41;;;;;;;33.20;19.02;;;;;;;11.77;100.00;101064.56;10536017;28;20048;-64
2022/10/14 03:41:41;;;;;;;33.88;17.77;;;;;;;11.81;100.00;101065.28;10534740;28;20020;-64
2022/10/14 03:46:42;;;;;;;38.67;18.27;;;;;;;11.79;100.00;101057.50;10533795;28;20263;-64
2022/10/14 03:51:42;;;;;;;25.85;16.23;;;;;;;11.81;100.00;101049.59;10536944;28;20024;-76
2022/10/14 03:56:42;;;;;;;30.42;16.55;;;;;;;11.77;100.00;101048.88;10536699;28;20027;-75
2022/10/14 04:01:43;;;;;;;35.47;17.97;;;;;;;11.78;100.00;101047.97;10536342;28;20149;-76
2022/10/14 04:06:44;;;;;;;30.67;17.63;;;;;;;11.77;100.00;101038.41;10536349;28;20050;-76
2022/10/14 04:11:45;;;;;;;25.08;15.27;;;;;;;11.82;100.00;101036.47;10538767;28;20532;-78
2022/10/14 04:16:46;;;;;;;32.70;15.52;;;;;;;11.84;100.00;101039.00;10541725;28;20075;-77
2022/10/14 04:21:47;;;;;;;26.52;15.45;;;;;;;11.80;100.00;101037.44;10543868;28;20024;-77
2022/10/14 04:26:51;;;;;;;35.43;16.97;;;;;;;11.80;100.00;101038.28;10543926;28;20387;-79
2022/10/14 04:31:51;;;;;;;26.25;14.95;;;;;;;11.81;100.00;101028.69;10543682;28;20115;-78
2022/10/14 04:36:52;;;;;;;25.97;15.23;;;;;;;11.84;100.00;101033.78;10543504;28;20123;-79
2022/10/14 04:41:53;;;;;;;22.67;14.90;;;;;;;11.83;100.00;101022.47;10544452;28;20047;-79
2022/10/14 04:46:53;;;;;;;27.17;13.88;;;;;;;11.85;100.00;101018.00;10540801;28;20107;-80
2022/10/14 04:51:54;;;;;;;24.48;13.95;;;;;;;11.90;100.00;101016.97;10542783;28;20122;-77
2022/10/14 04:56:54;;;;;;;22.95;14.50;;;;;;;11.89;100.00;101008.25;10542682;28;20418;-76
2022/10/14 05:01:55;;;;;;;23.05;12.98;;;;;;;11.91;100.00;101008.19;10543039;28;20028;-80
2022/10/14 05:06:55;;;;;;;19.73;14.00;;;;;;;11.91;100.00;101008.19;10541765;28;20475;-77
2022/10/14 05:11:56;;;;;;;25.75;14.07;;;;;;;11.93;100.00;101001.97;10542044;28;20046;-79
2022/10/14 05:16:56;;;;;;;17.83;11.77;;;;;;;11.94;100.00;100989.75;10539721;28;20391;-79
2022/10/14 05:21:56;;;;;;;16.67;12.20;;;;;;;11.93;100.00;100985.44;10541544;28;20051;-79
2022/10/14 05:26:57;;;;;;;17.25;10.45;;;;;;;11.96;100.00;100985.28;10541201;28;20112;-79
2022/10/14 05:31:57;;;;;;;13.73;8.57;;;;;;;11.99;100.00;100974.69;10541482;28;20028;-79
2022/10/14 05:36:57;;;;;;;13.57;9.83;;;;;;;11.97;100.00;100955.59;10541215;28;20071;-81
2022/10/14 14:11:37;;;;;;;9.00;7.90;;;;;;;15.47;100.00;100632.91;10373639;28;1908638;-64
2022/10/14 14:16:51;;;;;;;9.57;8.65;;;;;;;15.69;100.00;100634.94;10531882;28;20459;-64
2022/10/14 14:22:07;;;;;;;10.32;9.35;;;;;;;15.24;100.00;100643.16;10494845;28;20462;-63
2022/10/14 14:27:13;;;;;;;15.25;11.63;;;;;;;15.28;100.00;100638.53;10495096;28;20060;-64
2022/10/14 14:32:18;;;;;;;15.38;12.55;;;;;;;15.16;100.00;100633.13;10492412;28;20090;-64
2022/10/14 14:37:28;;;;;;;14.07;12.68;;;;;;;15.05;100.00;100630.34;10469465;28;20060;-65
2022/10/14 14:42:37;;;;;;;16.13;13.43;;;;;;;15.11;100.00;100622.09;10471058;28;20075;-65
2022/10/14 14:47:41;;;;;;;16.52;14.82;;;;;;;15.37;100.00;100614.28;10526516;28;20153;-64
2022/10/14 14:52:43;;;;;;;18.80;15.93;;;;;;;15.06;100.00;100608.41;10525765;28;20100;-65
2022/10/14 14:57:56;;;;;;;19.65;17.25;;;;;;;15.22;100.00;100612.66;10510847;28;20542;-64
2022/10/14 15:03:01;;;;;;;19.00;16.98;;;;;;;15.30;100.00;100611.19;10494013;28;20588;-67
2022/10/14 15:08:04;;;;;;;20.23;16.85;;;;;;;15.34;100.00;100611.84;10494052;28;20057;-66
2022/10/14 15:13:28;;;;;;;21.45;16.95;;;;;;;15.28;100.00;100609.59;10494597;28;20055;-65
2022/10/14 15:18:31;;;;;;;20.50;17.80;;;;;;;15.32;100.00;100613.72;10492642;28;20072;-65
2022/10/14 15:23:44;;;;;;;21.90;18.63;;;;;;;15.24;100.00;100610.75;10524309;28;20044;-63
2022/10/14 15:29:02;;;;;;;20.27;17.63;;;;;;;15.10;100.00;100609.03;10498842;28;20531;-63
2022/10/14 15:34:05;;;;;;;22.33;18.40;;;;;;;15.15;100.00;100606.94;10540980;28;20047;-63
2022/10/14 15:39:08;;;;;;;21.65;19.00;;;;;;;15.07;100.00;100599.56;10543203;28;20483;-64
2022/10/14 15:44:11;;;;;;;20.75;17.75;;;;;;;14.94;100.00;100594.28;10542668;28;20079;-63
2022/10/14 15:49:19;;;;;;;23.05;17.60;;;;;;;14.84;100.00;100594.03;10542329;28;20649;-65
2022/10/14 15:54:21;;;;;;;22.00;18.40;;;;;;;14.75;100.00;100584.91;10542202;28;20044;-64
2022/10/14 15:59:25;;;;;;;21.42;18.50;;;;;;;14.73;100.00;100588.59;10541921;28;20408;-64
2022/10/14 16:04:28;;;;;;;28.00;20.83;;;;;;;14.62;100.00;100584.88;10539637;28;20075;-67
2022/10/14 16:09:29;;;;;;;25.80;21.00;;;;;;;14.60;100.00;100581.50;10541414;28;20427;-65
2022/10/14 16:14:34;;;;;;;25.77;20.13;;;;;;;14.53;100.00;100588.94;10541728;28;20052;-63
2022/10/14 16:19:36;;;;;;;30.95;21.88;;;;;;;14.44;100.00;100586.03;10541038;28;20510;-64
2022/10/14 16:24:38;;;;;;;24.42;19.85;;;;;;;14.44;100.00;100591.28;10540727;28;20044;-65
2022/10/14 16:29:41;;;;;;;26.35;19.52;;;;;;;14.34;100.00;100586.59;10541237;28;20044;-63
2022/10/14 16:34:43;;;;;;;25.83;19.90;;;;;;;14.33;100.00;100597.22;10538028;28;20117;-63
2022/10/14 16:39:45;;;;;;;31.10;20.63;;;;;;;14.24;100.00;100598.63;10540720;28;20067;-64
2022/10/14 16:44:48;;;;;;;26.42;19.55;;;;;;;14.14;100.00;100590.47;10540027;28;20483;-65
2022/10/14 16:49:52;;;;;;;23.95;18.10;;;;;;;14.15;100.00;100582.53;10539957;28;20052;-67
2022/10/14 16:54:55;;;;;;;23.65;17.92;;;;;;;14.12;100.00;100581.84;10540465;28;20511;-65
2022/10/14 16:59:58;;;;;;;28.50;19.73;;;;;;;14.04;100.00;100577.91;10537887;28;20098;-66
2022/10/14 17:05:00;;;;;;;25.15;18.20;;;;;;;13.98;100.00;100577.44;10539717;28;20078;-65
2022/10/14 17:10:02;;;;;;;28.67;19.75;;;;;;;13.99;100.00;100594.91;10533915;28;20052;-65
2022/10/14 17:15:05;;;;;;;;;;;;;;;13.94;100.00;100578.56;10496072;28;20288;-65
2022/10/14 17:20:09;;;;;;;28.58;22.33;;;;;;;13.94;100.00;100594.31;10464474;28;20004;-65
2022/10/14 17:25:12;;;;;;;53.90;43.92;;;;;;;13.91;100.00;100590.09;10508915;28;20079;-64
2022/10/14 17:30:15;;;;;;;61.28;50.83;;;;;;;13.82;100.00;100591.50;10496210;28;20377;-64
2022/10/14 17:35:17;;;;;;;40.65;30.00;;;;;;;13.77;100.00;100583.06;10536530;28;20410;-64
2022/10/14 17:40:19;;;;;;;79.93;58.90;;;;;;;13.71;100.00;100583.44;10537710;28;20077;-65
2022/10/14 17:45:22;;;;;;;62.42;44.17;;;;;;;13.59;100.00;100591.09;10537868;28;20487;-64
2022/10/14 17:50:23;;;;;;;42.22;30.15;;;;;;;13.48;100.00;100593.50;10537729;28;20074;-65
2022/10/14 17:55:25;;;;;;;30.98;23.50;;;;;;;13.47;100.00;100602.28;10537674;28;20048;-65
2022/10/14 18:00:28;;;;;;;35.55;23.60;;;;;;;13.36;100.00;100595.03;10534895;28;20082;-65
2022/10/14 18:05:30;;;;;;;57.17;36.45;;;;;;;13.23;100.00;100587.91;10537338;28;20537;-65
2022/10/14 18:10:31;;;;;;;;;;;;;;;13.14;100.00;100597.13;10537242;28;20102;-65
2022/10/14 18:15:35;;;;;;;50.07;35.60;;;;;;;13.13;100.00;100582.34;10537139;28;19920;-64
2022/10/14 18:20:37;;;;;;;31.80;23.48;;;;;;;13.03;100.00;100578.56;10536784;28;20071;-65
2022/10/14 18:25:38;;;;;;;;;;;;;;;12.87;100.00;100581.22;10536802;28;20048;-64
2022/10/14 18:30:41;;;;;;;31.63;22.43;;;;;;;12.72;100.00;100575.03;10534375;28;19920;-65
2022/10/14 18:35:43;;;;;;;28.17;19.05;;;;;;;12.60;100.00;100572.19;10536198;28;20125;-65
2022/10/14 18:40:45;;;;;;;29.67;20.10;;;;;;;12.51;100.00;100567.47;10536331;28;20048;-65
2022/10/14 18:45:49;;;;;;;28.17;19.77;;;;;;;12.35;100.00;100584.00;10536054;28;20044;-64
2022/10/14 18:50:57;;;;;;;28.85;17.50;;;;;;;12.23;100.00;100568.97;10535635;28;20211;-74
2022/10/14 18:56:07;;;;;;;29.15;18.17;;;;;;;12.00;100.00;100565.78;10536014;28;20054;-74
2022/10/14 19:01:11;;;;;;;29.38;18.77;;;;;;;11.82;100.00;100560.59;10533336;28;20411;-71
2022/10/14 19:06:14;;;;;;;38.08;20.92;;;;;;;11.66;100.00;100554.44;10543298;28;20057;-74
2022/10/14 19:11:19;;;;;;;37.63;22.55;;;;;;;11.49;100.00;100543.09;10543946;28;20064;-73
2022/10/14 19:16:25;;;;;;;39.80;23.05;;;;;;;11.39;100.00;100541.91;10543921;28;20048;-72
2022/10/14 19:21:29;;;;;;;39.63;22.20;;;;;;;11.26;100.00;100536.44;10543687;28;20099;-73
2022/10/14 19:26:35;;;;;;;42.03;23.05;;;;;;;11.23;100.00;100537.44;10543591;28;20060;-72
2022/10/14 19:31:39;;;;;;;47.08;24.30;;;;;;;11.20;100.00;100542.81;10540980;28;20055;-73
2022/10/14 19:36:42;;;;;;;51.78;26.77;;;;;;;11.12;100.00;100551.03;10543600;28;20093;-73
2022/10/14 19:41:46;;;;;;;46.60;25.35;;;;;;;11.07;100.00;100543.44;10542668;28;20488;-75
2022/10/14 19:46:49;;;;;;;49.60;25.38;;;;;;;11.12;100.00;100542.38;10542494;28;20508;-72
2022/10/14 19:51:50;;;;;;;56.42;26.30;;;;;;;11.02;100.00;100536.75;10542496;28;20064;-72
2022/10/14 19:56:52;;;;;;;49.28;26.02;;;;;;;10.90;100.00;100532.97;10542021;28;20052;-71
2022/10/14 20:01:55;;;;;;;53.03;26.00;;;;;;;10.86;100.00;100534.03;10539711;28;20137;-73
2022/10/14 20:06:57;;;;;;;51.55;25.33;;;;;;;10.84;100.00;100520.22;10542085;28;20071;-75
2022/10/14 20:11:58;;;;;;;56.00;26.95;;;;;;;10.72;100.00;100535.56;10542202;28;20078;-74
2022/10/14 20:17:02;;;;;;;48.67;25.40;;;;;;;10.61;100.00;100519.56;10541364;28;20113;-73
2022/10/14 20:22:04;;;;;;;57.95;26.17;;;;;;;10.55;100.00;100521.53;10541844;28;20139;-72
2022/10/14 20:27:07;;;;;;;58.17;25.63;;;;;;;10.52;100.00;100526.91;10541572;28;20083;-73
2022/10/14 20:32:10;;;;;;;82.90;37.50;;;;;;;10.37;100.00;100527.59;10539642;28;20075;-72
2022/10/14 20:37:12;;;;;;;71.70;32.22;;;;;;;10.28;100.00;100534.94;10541637;28;20072;-74
2022/10/14 20:42:14;;;;;;;70.10;30.13;;;;;;;10.22;100.00;100524.78;10540902;28;20089;-74
2022/10/14 20:47:17;;;;;;;95.78;43.50;;;;;;;10.15;100.00;100529.44;10540828;28;20068;-73
2022/10/14 20:52:18;;;;;;;91.38;39.75;;;;;;;10.24;100.00;100525.56;10541018;28;20105;-73
2022/10/14 20:57:21;;;;;;;77.28;34.50;;;;;;;10.28;100.00;100527.13;10540819;28;20055;-72
2022/10/14 21:02:24;;;;;;;73.70;34.67;;;;;;;10.25;100.00;100519.44;10538239;28;20044;-74
2022/10/14 21:07:26;;;;;;;76.75;31.73;;;;;;;10.36;100.00;100525.88;10539557;28;20056;-73
2022/10/14 21:12:28;;;;;;;73.88;33.95;;;;;;;10.36;100.00;100537.19;10539602;28;20407;-73
2022/10/14 21:17:31;;;;;;;81.70;30.83;;;;;;;10.42;100.00;100541.25;10539405;28;20052;-73
2022/10/14 21:22:32;;;;;;;70.10;29.63;;;;;;;10.49;100.00;100537.50;10539535;28;20048;-72
2022/10/14 21:27:34;;;;;;;76.30;30.95;;;;;;;10.54;100.00;100532.88;10538230;28;20123;-73
2022/10/14 21:32:37;;;;;;;73.85;32.00;;;;;;;10.61;100.00;100535.22;10536880;28;20079;-72
2022/10/14 21:37:39;;;;;;;73.40;30.08;;;;;;;10.60;100.00;100529.16;10539264;28;20063;-72
2022/10/14 21:42:40;;;;;;;72.70;31.02;;;;;;;10.59;100.00;100517.03;10538597;28;20052;-73
2022/10/14 21:47:43;;;;;;;71.10;29.88;;;;;;;10.61;100.00;100524.78;10538590;28;20063;-71
2022/10/14 21:52:45;;;;;;;68.40;31.23;;;;;;;10.65;100.00;100531.53;10538002;28;20048;-74
2022/10/14 21:57:50;;;;;;;66.95;29.50;;;;;;;10.64;100.00;100525.47;10537824;28;20086;-72
2022/10/14 22:02:53;;;;;;;75.70;30.58;;;;;;;10.65;100.00;100516.75;10535611;28;20043;-71
2022/10/14 22:07:57;;;;;;;73.97;30.23;;;;;;;10.65;100.00;100515.88;10537371;28;20054;-73
2022/10/14 22:13:00;;;;;;;79.15;29.95;;;;;;;10.63;100.00;100507.28;10537340;28;20515;-74
2022/10/14 22:18:03;;;;;;;70.50;30.50;;;;;;;10.61;100.00;100509.13;10537848;28;20473;-72
2022/10/14 22:23:05;;;;;;;75.80;31.60;;;;;;;10.54;100.00;100514.63;10537553;28;20096;-74
2022/10/14 22:28:07;;;;;;;71.03;30.02;;;;;;;10.56;100.00;100504.97;10537496;28;20457;-74
2022/10/14 22:33:10;;;;;;;71.32;31.88;;;;;;;10.49;100.00;100515.75;10534699;28;20058;-72
2022/10/14 22:38:12;;;;;;;85.05;33.13;;;;;;;10.43;100.00;100515.09;10537170;28;20052;-75
2022/10/14 22:43:14;;;;;;;89.45;34.08;;;;;;;10.39;100.00;100504.88;10536720;28;20499;-73
2022/10/14 22:48:18;;;;;;;87.80;33.63;;;;;;;10.37;100.00;100511.94;10536695;28;20399;-74
2022/10/14 22:53:20;;;;;;;79.90;31.33;;;;;;;10.36;100.00;100505.03;10536948;28;20044;-73
2022/10/14 22:58:21;;;;;;;79.85;30.17;;;;;;;10.31;100.00;100500.88;10536171;28;20058;-71
2022/10/14 23:03:26;;;;;;;80.28;30.67;;;;;;;10.25;100.00;100493.34;10533740;28;20483;-74
2022/10/14 23:08:27;;;;;;;81.53;31.48;;;;;;;10.25;100.00;100488.13;10536267;28;20052;-72
2022/10/14 23:13:31;;;;;;;86.45;31.83;;;;;;;10.22;100.00;100490.88;10535988;28;20052;-76
2022/10/14 23:18:37;;;;;;;75.03;30.58;;;;;;;10.20;100.00;100484.91;10535916;28;20414;-75
2022/10/14 23:23:39;;;;;;;76.28;30.15;;;;;;;10.05;100.00;100479.47;10536308;28;20068;-73
2022/10/14 23:28:42;;;;;;;;;;;;;;;9.99;100.00;100479.75;10536398;28;20048;-73
2022/10/14 23:33:45;;;;;;;76.18;27.23;;;;;;;9.83;100.00;100470.94;10534016;28;20356;-74
2022/10/14 23:38:47;;;;;;;93.15;30.92;;;;;;;9.70;100.00;100476.72;10536354;28;20097;-73
2022/10/14 23:43:49;;;;;;;;;;;;;;;9.65;100.00;100473.47;10536912;28;20155;-71
2022/10/14 23:48:54;;;;;;;81.13;27.63;;;;;;;9.48;100.00;100476.81;10537709;28;19920;-72
2022/10/14 23:53:56;;;;;;;82.85;27.73;;;;;;;9.39;100.00;100467.63;10542844;28;20052;-71
2022/10/14 23:58:57;;;;;;;76.65;27.85;;;;;;;9.37;100.00;100474.66;10543321;28;20056;-70
